Погода Виндхукна неделю

Кхомас, Намибия

13 - 19 июня
  • 13июня
    Сегодня
    +9°
    +24°
    Ясно и безоблачно
    ВремяПогодаТемператураВлажностьДавлениеВетер, м/сВероятность осадков
    02:00Небольшая облачность+12°C43 %628 мм3.0 м/с5 %
    05:00Ясно и безоблачно+11°C42 %627 мм3.1 м/с5 %
    08:00Ясно и безоблачно+11°C40 %628 мм3.4 м/с5 %
    11:00Ясно и безоблачно+20°C23 %632 мм3.1 м/с5 %
    14:00Ясно и безоблачно+23°C15 %631 мм3.6 м/с5 %
    17:00Ясно и безоблачно+24°C7 %630 мм3.3 м/с5 %
    20:00Ясно и безоблачно+17°C13 %629 мм2.1 м/с5 %
    23:00Ясно и безоблачно+13°C18 %628 мм3.0 м/с5 %
  • 14июня
    Пятница
    +8°
    +25°
    Ясно и безоблачно
    ВремяПогодаТемператураВлажностьДавлениеВетер, м/сВероятность осадков
    02:00Ясно и безоблачно+11°C23 %628 мм3.1 м/с5 %
    05:00Ясно и безоблачно+10°C27 %627 мм3.3 м/с5 %
    08:00Ясно и безоблачно+9°C31 %628 мм3.5 м/с5 %
    11:00Ясно и безоблачно+19°C17 %632 мм2.9 м/с5 %
    14:00Ясно и безоблачно+23°C9 %630 мм3.1 м/с5 %
    17:00Ясно и безоблачно+24°C7 %630 мм2.8 м/с5 %
    20:00Ясно и безоблачно+17°C12 %628 мм2.1 м/с5 %
    23:00Ясно и безоблачно+13°C21 %627 мм3.1 м/с5 %
  • 15июня
    Суббота
    +9°
    +25°
    Ясно и безоблачно
    ВремяПогодаТемператураВлажностьДавлениеВетер, м/сВероятность осадков
    02:00Ясно и безоблачно+11°C28 %627 мм3.3 м/с4 %
    05:00Ясно и безоблачно+10°C31 %626 мм3.4 м/с4 %
    08:00Ясно и безоблачно+9°C27 %626 мм3.6 м/с4 %
    11:00Ясно и безоблачно+19°C13 %630 мм2.9 м/с4 %
    14:00Ясно и безоблачно+23°C8 %629 мм3.0 м/с4 %
    17:00Ясно и безоблачно+24°C8 %629 мм2.9 м/с4 %
    20:00Ясно и безоблачно+17°C16 %627 мм2.1 м/с4 %
    23:00Ясно и безоблачно+13°C21 %627 мм3.1 м/с4 %
  • 16июня
    Воскресенье
    +9°
    +25°
    Ясно и безоблачно
    ВремяПогодаТемператураВлажностьДавлениеВетер, м/сВероятность осадков
    02:00Ясно и безоблачно+11°C27 %626 мм3.2 м/с4 %
    05:00Ясно и безоблачно+10°C33 %625 мм3.3 м/с4 %
    08:00Ясно и безоблачно+9°C33 %625 мм3.5 м/с4 %
    11:00Ясно и безоблачно+19°C17 %629 мм2.8 м/с4 %
    14:00Ясно и безоблачно+24°C9 %629 мм3.2 м/с4 %
    17:00Ясно и безоблачно+24°C9 %628 мм3.1 м/с4 %
    20:00Ясно и безоблачно+16°C18 %627 мм2.2 м/с4 %
    23:00Ясно и безоблачно+13°C22 %626 мм3.1 м/с4 %
Мы используем cookies
Соглашаюсь